• Join FlightAware (Why Join?)
  • Login
  • US Flag 
02:11PM EDT


 

Airport Tracker/Info


-or-


 

Live Flight TrackerFlight Track Log ✈ N911MN ✈ 30-Jul-2013 ✈ KEST - KFSD

Flight Track Log - Related Links

Times and Time Zones

All times are in EDT time to prevent confusion due to time zone crossing. See the N911MN flight status page for this flight to view local times or setup timezone preferences in your user account.

Time Position Orientation Groundspeed Altitude Reporting Facility
EDT Latitude Longitude Course Direction KTS MPH feet Rate Location/Type
06:59AM 43.4667 -94.8486 277° West 165 190 5,300  Level Minneapolis Center
07:01AM 43.4759 -94.9829 281° West  Level Estimated
07:04AM 43.4383 -95.1211 277° West  Level FlightAware Approximate
07:08AM 43.4696 -95.5282 289° West  Level FlightAware Approximate
07:09AM 43.4833 -95.6036 270° West  Level FlightAware Approximate
07:10AM 43.4833 -95.6822 270° West  Level FlightAware Approximate
07:11AM 43.4875 -95.7602 282° West  Level FlightAware Approximate
07:12AM 43.4994 -95.8372 282° West  Level FlightAware Approximate
07:13AM 43.5112 -95.9141 282° West  Level FlightAware Approximate
07:14AM 43.5167 -95.9920 270° West  Level FlightAware Approximate
07:15AM 43.5205 -96.0704 276° West  Level FlightAware Approximate
07:16AM 43.5261 -96.1486 276° West  Level FlightAware Approximate
07:17AM 43.5317 -96.2269 276° West  Level FlightAware Approximate
07:18AM 43.5373 -96.3052 276° West  Level FlightAware Approximate
07:19AM 43.5429 -96.3836 276° West  Level FlightAware Approximate
07:20AM 43.5485 -96.4619 276° West  Level FlightAware Approximate
07:21AM 43.5566 -96.5394 283° West  Level FlightAware Approximate
07:22AM 43.5667 -96.6166 270° West  Level FlightAware Approximate
07:23AM 43.5667 -96.6953 270° West  Level FlightAware Approximate
07:24AM 43.5667 -96.7333 270° West  Level FlightAware Approximate
07:25AM 43.5820 -96.7419 270° West  Level Estimated
07:26AM 43.5820 -96.7419 270° West  Level Estimated
07:27AM 43.5820 -96.7419 270° West  Level Estimated
07:28AM 43.5820 -96.7419 270° West  Level Estimated
07:29AM 43.5820 -96.7419 270° West  Level Estimated
07:30AM 43.5820 -96.7419 270° West  Level Estimated
07:31AM 43.5820 -96.7419 270° West  Level Estimated
07:32AM 43.5820 -96.7419 270° West  Level Estimated
07:33AM 43.5820 -96.7419 270° West  Level Estimated
07:34AM 43.5820 -96.7419 270° West  Level Estimated
07:35AM 43.5820 -96.7419 270° West  Level Estimated
07:36AM 43.5820 -96.7419 270° West  Level Estimated
07:37AM 43.5820 -96.7419 270° West  Level Estimated
07:38AM 43.5820 -96.7419 270° West  Level Estimated
07:39AM 43.5820 -96.7419 270° West  Level Estimated
07:40AM 43.5820 -96.7419 270° West  Level Estimated